Time;durP1;ratioP1;P1;durP2;ratioP2;P2;SDS_P1;SDS_P2;PMS_P1;PMS_P2;Temp;Humidity;BMP_temperature;BMP_pressure;BME280_temperature;BME280_humidity;BME280_pressure;Samples;Min_cycle;Max_cycle;Signal;HPM_P1;HPM_P2
2023/06/01 00:02:23;;;;;;;10.13;6.60;;;15.70;1.00;;;;;;5113650;28;20407;-82
2023/06/01 00:04:50;;;;;;;7.50;5.33;;;15.60;1.00;;;;;;5113560;28;20218;-83
2023/06/01 00:07:16;;;;;;;7.40;5.37;;;15.60;1.00;;;;;;5127785;27;20221;-81
2023/06/01 00:09:41;;;;;;;8.80;5.37;;;15.60;1.00;;;;;;5133923;27;20484;-82
2023/06/01 00:12:08;;;;;;;7.73;6.20;;;15.60;1.00;;;;;;5133293;27;20512;-81
2023/06/01 00:14:33;;;;;;;7.13;5.53;;;15.60;1.00;;;;;;5133995;27;20668;-81
2023/06/01 00:16:59;;;;;;;9.27;6.10;;;15.60;1.00;;;;;;5134422;27;20436;-82
2023/06/01 00:19:26;;;;;;;12.90;6.27;;;15.60;1.00;;;;;;5134243;27;20175;-79
2023/06/01 00:21:53;;;;;;;8.47;6.50;;;15.60;1.00;;;;;;5106764;28;20179;-78
2023/06/01 00:24:20;;;;;;;7.63;4.53;;;15.70;1.00;;;;;;5112416;28;20907;-78
2023/06/01 00:26:45;;;;;;;8.63;5.43;;;15.60;1.00;;;;;;5112559;28;20443;-78
2023/06/01 00:29:12;;;;;;;8.53;5.30;;;15.60;1.00;;;;;;5113545;28;20543;-78
2023/06/01 00:31:38;;;;;;;8.17;5.07;;;15.60;1.00;;;;;;5113406;28;20174;-81
2023/06/01 00:34:03;;;;;;;6.30;4.60;;;15.60;1.00;;;;;;5128631;27;20424;-78
2023/06/01 00:36:29;;;;;;;6.50;5.23;;;15.60;1.00;;;;;;5133768;27;20223;-78
2023/06/01 00:39:01;;;;;;;7.10;4.67;;;15.60;1.00;;;;;;5115204;27;20198;-78
2023/06/01 00:41:27;;;;;;;9.30;4.27;;;15.50;1.00;;;;;;5134050;27;20174;-78
2023/06/01 00:43:53;;;;;;;9.20;4.17;;;15.40;1.00;;;;;;5133956;28;20421;-80
2023/06/01 00:46:18;;;;;;;6.93;4.17;;;15.50;1.00;;;;;;5115600;28;20488;-78
2023/06/01 00:48:47;;;;;;;10.30;4.63;;;15.40;1.00;;;;;;5133871;28;20295;-79
2023/06/01 00:51:14;;;;;;;5.87;3.40;;;15.50;1.00;;;;;;5133876;28;20197;-80
2023/06/01 00:53:41;;;;;;;5.13;3.77;;;15.40;1.00;;;;;;5133588;28;20457;-79
2023/06/01 00:56:07;;;;;;;7.60;4.47;;;15.40;1.00;;;;;;5133840;28;20436;-78
2023/06/01 00:58:33;;;;;;;6.70;3.47;;;15.40;1.00;;;;;;5133791;28;20931;-80
2023/06/01 01:01:02;;;;;;;9.87;3.93;;;15.30;1.00;;;;;;5133624;28;20474;-78
2023/06/01 01:03:31;;;;;;;7.17;2.80;;;15.20;1.00;;;;;;5133815;28;20171;-80
2023/06/01 01:06:17;;;;;;;6.93;3.80;;;15.20;1.00;;;;;;5133785;28;20424;-78
2023/06/01 01:09:07;;;;;;;7.30;3.07;;;15.20;1.00;;;;;;5133432;28;20444;-78
2023/06/01 01:11:34;;;;;;;7.30;3.60;;;15.10;1.00;;;;;;5133750;28;20453;-78
2023/06/01 01:14:25;;;;;;;6.57;3.83;;;15.10;1.00;;;;;;5133742;28;20436;-78
2023/06/01 01:17:19;;;;;;;8.43;4.60;;;14.90;1.00;;;;;;5136216;27;20420;-79
2023/06/01 01:20:18;;;;;;;6.10;2.57;;;15.00;84.90;;;;;;5137663;27;20406;-78
2023/06/01 01:23:04;;;;;;;5.80;4.07;;;15.00;99.70;;;;;;5137282;27;20448;-82
2023/06/01 01:26:10;;;;;;;9.50;3.63;;;15.00;99.90;;;;;;5137611;27;20423;-83
2023/06/01 01:28:42;;;;;;;4.67;2.93;;;15.10;99.90;;;;;;5122167;27;20828;-83
2023/06/01 01:31:12;;;;;;;4.30;2.70;;;15.20;99.90;;;;;;5137540;27;20424;-83
2023/06/01 01:33:38;;;;;;;5.60;2.80;;;15.30;99.90;;;;;;5137349;27;20420;-82
2023/06/01 01:36:05;;;;;;;3.83;2.37;;;15.30;49.10;;;;;;5137406;27;20432;-83
2023/06/01 01:38:35;;;;;;;4.07;1.67;;;15.30;56.60;;;;;;5136981;27;20411;-83
2023/06/01 01:41:00;;;;;;;6.83;2.67;;;15.20;99.90;;;;;;5137326;27;20872;-81
2023/06/01 01:43:30;;;;;;;6.20;2.60;;;15.20;99.90;;;;;;5137201;27;20428;-78
2023/06/01 01:46:21;;;;;;;3.87;2.00;;;15.20;19.10;;;;;;5137072;27;20535;-79
2023/06/01 01:48:59;;;;;;;4.20;2.43;;;15.20;99.90;;;;;;5118718;27;20451;-80
2023/06/01 01:51:31;;;;;;;5.20;2.63;;;15.30;98.30;;;;;;5118732;27;20769;-80
2023/06/01 01:54:01;;;;;;;3.73;1.80;;;15.20;20.70;;;;;;5136764;27;20413;-78
2023/06/01 01:56:31;;;;;;;6.40;2.43;;;15.20;1.00;;;;;;5136850;27;20785;-78
2023/06/01 01:58:56;;;;;;;6.60;2.67;;;15.20;1.00;;;;;;5136907;27;20413;-78
2023/06/01 02:01:23;;;;;;;5.73;2.23;;;15.20;1.00;;;;;;5136765;27;20457;-82
2023/06/01 02:03:58;;;;;;;4.13;2.07;;;15.10;1.00;;;;;;5136927;27;20220;-80
2023/06/01 02:06:23;;;;;;;7.23;2.50;;;15.00;1.00;;;;;;5136868;27;20420;-78
2023/06/01 02:08:49;;;;;;;5.17;2.60;;;15.00;1.00;;;;;;5136357;27;20455;-80
2023/06/01 02:11:15;;;;;;;6.07;2.37;;;15.00;1.00;;;;;;5136762;27;20178;-80
2023/06/01 02:13:40;;;;;;;8.07;3.27;;;15.00;99.90;;;;;;5136591;27;20172;-82
2023/06/01 02:16:06;;;;;;;6.47;1.90;;;15.00;1.00;;;;;;5136547;27;20178;-79
2023/06/01 02:18:31;;;;;;;4.10;1.80;;;15.00;1.00;;;;;;5136488;27;20648;-84
2023/06/01 02:20:57;;;;;;;4.67;2.13;;;15.00;1.00;;;;;;5118145;27;20165;-83
2023/06/01 02:23:23;;;;;;;5.30;2.70;;;15.10;1.00;;;;;;5136081;27;20607;-85
2023/06/01 02:25:48;;;;;;;5.03;2.83;;;15.10;1.00;;;;;;5136417;27;20168;-83
2023/06/01 02:28:13;;;;;;;5.13;2.90;;;15.00;99.90;;;;;;5134978;27;20176;-82
2023/06/01 02:30:39;;;;;;;4.90;1.97;;;15.00;1.00;;;;;;5136274;27;20214;-81
2023/06/01 02:33:05;;;;;;;6.13;1.80;;;15.10;99.90;;;;;;5136394;27;20173;-83
2023/06/01 02:35:30;;;;;;;4.07;1.60;;;15.10;1.00;;;;;;5136108;27;20250;-83
2023/06/01 02:37:58;;;;;;;10.93;3.20;;;15.00;99.90;;;;;;5135686;27;20177;-80
2023/06/01 02:40:24;;;;;;;7.70;1.77;;;15.10;1.00;;;;;;5136100;27;20174;-79
2023/06/01 02:42:50;;;;;;;4.90;2.47;;;15.00;1.00;;;;;;5135971;27;20420;-80
2023/06/01 02:45:15;;;;;;;6.33;1.50;;;15.10;1.00;;;;;;5135926;27;20167;-82
2023/06/01 02:47:41;;;;;;;4.43;1.77;;;15.00;1.00;;;;;;5135889;27;20178;-83
2023/06/01 02:50:06;;;;;;;6.90;2.50;;;15.00;99.90;;;;;;5117324;27;20215;-77
2023/06/01 02:52:32;;;;;;;8.20;3.47;;;14.90;99.90;;;;;;5135520;27;20167;-79
2023/06/01 02:54:57;;;;;;;7.93;1.63;;;14.80;11.20;;;;;;5135864;27;20179;-82
2023/06/01 02:57:23;;;;;;;7.67;2.60;;;14.70;99.90;;;;;;5135831;27;20179;-83
2023/06/01 02:59:48;;;;;;;5.03;2.20;;;14.60;99.90;;;;;;5135435;27;20275;-80
2023/06/01 03:02:14;;;;;;;5.23;2.37;;;14.60;99.90;;;;;;5135758;27;20617;-82
2023/06/01 03:04:39;;;;;;;5.53;1.90;;;14.60;99.90;;;;;;5135560;27;20171;-83
2023/06/01 03:07:05;;;;;;;10.87;2.13;;;14.50;1.00;;;;;;5135612;27;20420;-83
2023/06/01 03:09:30;;;;;;;4.80;1.77;;;14.50;1.00;;;;;;5135268;27;20289;-83
2023/06/01 03:12:02;;;;;;;5.07;1.97;;;14.50;1.00;;;;;;5117158;27;20683;-79
2023/06/01 03:14:28;;;;;;;5.57;2.10;;;14.40;1.00;;;;;;5135461;27;20178;-80
2023/06/01 03:16:53;;;;;;;7.97;2.30;;;14.30;1.00;;;;;;5135319;27;20413;-80
2023/06/01 03:19:19;;;;;;;5.93;2.00;;;14.30;1.00;;;;;;5116882;27;20175;-84
2023/06/01 03:21:46;;;;;;;6.80;2.10;;;14.30;1.00;;;;;;5135344;27;20260;-78
2023/06/01 03:24:12;;;;;;;5.87;2.50;;;14.20;1.00;;;;;;5135002;27;20167;-84
2023/06/01 03:26:37;;;;;;;10.90;2.90;;;14.20;1.00;;;;;;5135224;27;20430;-84
2023/06/01 03:29:04;;;;;;;6.20;2.37;;;14.20;1.00;;;;;;5135146;27;20207;-77
2023/06/01 03:31:30;;;;;;;7.17;2.93;;;14.20;56.00;;;;;;5135235;27;20166;-78
2023/06/01 03:33:55;;;;;;;6.20;2.00;;;14.10;24.60;;;;;;5134997;27;20455;-81
2023/06/01 03:36:25;;;;;;;7.27;2.20;;;14.10;20.10;;;;;;5134971;27;20463;-77
2023/06/01 03:38:50;;;;;;;7.90;2.30;;;14.10;1.00;;;;;;5134220;27;20172;-78
2023/06/01 03:41:15;;;;;;;6.93;1.57;;;14.10;4.00;;;;;;5116595;27;20417;-78
2023/06/01 03:43:41;;;;;;;5.33;2.57;;;14.10;54.70;;;;;;5134814;27;20178;-79
2023/06/01 03:46:06;;;;;;;4.73;1.97;;;14.20;1.00;;;;;;5134144;27;20432;-78
2023/06/01 03:48:32;;;;;;;5.90;2.20;;;14.10;1.00;;;;;;5134635;27;20163;-78
2023/06/01 03:50:57;;;;;;;6.17;2.57;;;14.20;1.00;;;;;;5134620;27;20418;-78
2023/06/01 03:53:26;;;;;;;5.70;2.20;;;14.20;1.00;;;;;;5134143;27;20171;-78
2023/06/01 03:55:52;;;;;;;6.20;2.03;;;14.20;1.00;;;;;;5134500;27;20189;-78
2023/06/01 03:58:19;;;;;;;6.30;2.00;;;14.10;1.00;;;;;;5134699;27;20480;-82
2023/06/01 04:00:46;;;;;;;4.70;2.50;;;14.10;1.00;;;;;;5134362;27;20210;-83
2023/06/01 04:03:12;;;;;;;5.90;2.57;;;14.10;44.00;;;;;;5134508;27;20492;-79
2023/06/01 04:05:37;;;;;;;7.90;2.07;;;14.00;1.00;;;;;;5134375;27;20869;-84
2023/06/01 04:08:03;;;;;;;8.97;3.40;;;14.00;1.00;;;;;;5134209;27;20571;-86
2023/06/01 04:10:28;;;;;;;5.23;2.40;;;13.90;1.00;;;;;;5134378;27;20561;-84
2023/06/01 04:12:54;;;;;;;7.40;2.07;;;13.90;99.90;;;;;;5134340;27;20173;-85
2023/06/01 04:15:20;;;;;;;6.07;2.40;;;13.90;99.90;;;;;;5134351;27;20171;-84
2023/06/01 04:17:46;;;;;;;7.33;1.83;;;14.00;99.90;;;;;;5134361;27;20211;-78
2023/06/01 04:20:14;;;;;;;6.13;2.47;;;14.00;99.90;;;;;;5134256;27;20409;-83
2023/06/01 04:22:41;;;;;;;6.60;1.97;;;14.10;99.90;;;;;;5133886;27;20179;-84
2023/06/01 04:25:11;;;;;;;3.67;1.97;;;14.20;99.90;;;;;;5134186;27;20496;-78
2023/06/01 04:27:37;;;;;;;9.43;3.53;;;14.30;84.50;;;;;;5134112;27;20405;-81
2023/06/01 04:30:05;;;;;;;6.20;1.80;;;14.30;1.00;;;;;;5134108;27;20465;-78
2023/06/01 04:32:31;;;;;;;6.83;2.47;;;14.30;1.00;;;;;;5115585;27;20427;-77
2023/06/01 04:34:56;;;;;;;3.13;2.20;;;14.30;1.00;;;;;;5134050;27;20491;-78
2023/06/01 04:37:22;;;;;;;4.67;1.73;;;14.30;1.00;;;;;;5115474;28;20175;-78
2023/06/01 04:39:51;;;;;;;4.83;2.23;;;14.30;1.00;;;;;;5134077;27;20167;-77
2023/06/01 04:42:18;;;;;;;5.47;2.90;;;14.40;1.00;;;;;;5121003;27;20180;-78
2023/06/01 04:44:46;;;;;;;9.60;3.60;;;14.30;1.00;;;;;;5113467;28;20497;-78
2023/06/01 04:47:16;;;;;;;4.10;2.47;;;14.30;1.00;;;;;;5113478;28;20445;-78
2023/06/01 04:49:42;;;;;;;7.83;4.60;;;14.30;1.00;;;;;;5113367;28;20459;-79
2023/06/01 04:52:09;;;;;;;7.77;2.70;;;14.40;1.00;;;;;;5116285;28;20425;-81
2023/06/01 04:54:36;;;;;;;6.67;2.07;;;14.40;1.00;;;;;;5117587;28;20394;-80
2023/06/01 04:57:06;;;;;;;4.70;1.90;;;14.30;1.00;;;;;;5117684;28;20420;-78
2023/06/01 04:59:32;;;;;;;6.17;2.50;;;14.40;1.00;;;;;;5117329;28;20458;-80
2023/06/01 05:01:57;;;;;;;4.97;2.63;;;14.50;1.00;;;;;;5117519;28;20461;-79
2023/06/01 05:04:23;;;;;;;6.67;2.97;;;14.60;1.00;;;;;;5117493;28;20828;-78
2023/06/01 05:06:48;;;;;;;10.20;3.23;;;14.60;1.00;;;;;;5117364;28;20658;-82
2023/06/01 05:09:14;;;;;;;11.87;3.73;;;14.80;1.00;;;;;;5116715;28;20255;-81
2023/06/01 05:11:39;;;;;;;7.63;3.30;;;14.70;1.00;;;;;;5099044;28;20187;-83
2023/06/01 05:14:07;;;;;;;5.87;3.07;;;14.80;1.00;;;;;;5117162;28;20172;-82
2023/06/01 05:16:33;;;;;;;7.97;2.43;;;14.70;99.90;;;;;;5117189;28;20198;-81
2023/06/01 05:18:58;;;;;;;9.30;2.80;;;14.80;99.90;;;;;;5117225;28;20439;-82
2023/06/01 05:21:24;;;;;;;7.30;3.57;;;14.80;99.90;;;;;;5117113;28;20171;-79
2023/06/01 05:23:49;;;;;;;9.40;2.33;;;14.80;99.90;;;;;;5116641;28;20620;-83
2023/06/01 05:26:15;;;;;;;6.70;2.20;;;14.80;76.50;;;;;;5117045;28;20175;-85
2023/06/01 05:28:40;;;;;;;9.37;3.03;;;14.80;99.90;;;;;;5116961;28;20172;-86
2023/06/01 05:31:06;;;;;;;5.90;3.17;;;14.80;99.90;;;;;;5116898;28;20175;-82
2023/06/01 05:33:31;;;;;;;6.50;2.00;;;14.80;99.90;;;;;;5116915;28;20176;-83
2023/06/01 05:35:57;;;;;;;8.47;2.87;;;14.80;99.90;;;;;;5116833;28;20175;-84
2023/06/01 05:38:23;;;;;;;6.77;2.73;;;14.90;99.90;;;;;;5116440;28;20272;-81
2023/06/01 05:40:48;;;;;;;15.40;5.50;;;15.00;99.90;;;;;;5116779;28;20248;-86
2023/06/01 05:43:15;;;;;;;7.73;2.60;;;15.00;99.90;;;;;;5116656;28;20202;-82
2023/06/01 05:45:40;;;;;;;7.03;2.40;;;15.10;1.00;;;;;;5116734;28;20599;-84
2023/06/01 05:48:06;;;;;;;5.10;1.97;;;15.10;99.90;;;;;;5116544;28;20406;-79
2023/06/01 05:50:31;;;;;;;5.90;2.40;;;15.10;99.90;;;;;;5116404;28;20213;-84
2023/06/01 05:52:57;;;;;;;9.40;2.90;;;15.20;99.90;;;;;;5115979;28;20173;-79
2023/06/01 05:55:22;;;;;;;5.67;2.90;;;15.20;99.90;;;;;;5115939;28;20193;-78
2023/06/01 05:57:48;;;;;;;10.57;3.63;;;15.20;1.00;;;;;;5116184;28;20168;-80
2023/06/01 06:00:15;;;;;;;9.00;3.80;;;15.10;99.90;;;;;;5116796;28;20245;-78
2023/06/01 06:02:42;;;;;;;8.27;2.00;;;15.20;1.00;;;;;;5116013;28;20178;-76
2023/06/01 06:05:09;;;;;;;6.60;2.67;;;15.20;99.90;;;;;;5116209;28;20506;-79
2023/06/01 06:07:34;;;;;;;5.20;2.67;;;15.20;99.90;;;;;;5114400;28;20941;-79
2023/06/01 06:10:00;;;;;;;11.23;3.43;;;15.20;1.00;;;;;;5116071;28;20474;-79
2023/06/01 06:12:25;;;;;;;6.60;2.60;;;15.20;1.00;;;;;;5116120;28;20201;-80
2023/06/01 06:14:51;;;;;;;7.33;2.57;;;15.20;1.00;;;;;;5096966;28;20628;-79
2023/06/01 06:17:16;;;;;;;6.27;3.13;;;15.30;19.10;;;;;;5116150;28;20566;-79
2023/06/01 06:19:43;;;;;;;4.87;2.23;;;15.30;1.00;;;;;;5115035;28;20175;-80
2023/06/01 06:22:09;;;;;;;6.93;1.90;;;15.30;99.90;;;;;;5105022;28;20172;-79
2023/06/01 06:24:38;;;;;;;7.97;1.80;;;15.20;1.00;;;;;;5104990;28;20645;-79
2023/06/01 06:27:06;;;;;;;5.27;2.00;;;15.10;99.90;;;;;;5105304;28;20422;-80
2023/06/01 06:29:32;;;;;;;5.27;1.87;;;15.10;1.00;;;;;;5083338;28;20461;-79
2023/06/01 06:31:57;;;;;;;7.87;2.60;;;15.00;99.90;;;;;;5111817;28;20761;-79
2023/06/01 06:34:23;;;;;;;9.70;2.77;;;15.10;1.00;;;;;;5102241;28;20272;-79
2023/06/01 06:36:48;;;;;;;3.10;1.43;;;15.10;99.90;;;;;;5097834;28;20636;-82
2023/06/01 06:39:15;;;;;;;5.93;1.90;;;15.10;1.00;;;;;;5110645;28;20168;-80
2023/06/01 06:41:41;;;;;;;4.90;2.60;;;15.10;1.00;;;;;;5102975;28;21017;-78
2023/06/01 06:44:07;;;;;;;6.17;1.37;;;15.20;1.00;;;;;;5107050;28;20416;-81
2023/06/01 06:46:32;;;;;;;5.20;1.67;;;15.20;99.90;;;;;;5105682;28;20947;-76
2023/06/01 06:48:58;;;;;;;5.73;1.60;;;15.20;99.90;;;;;;5104756;28;20649;-79
2023/06/01 06:51:23;;;;;;;2.83;1.67;;;15.20;1.00;;;;;;5105582;28;20172;-79
2023/06/01 06:53:49;;;;;;;5.70;1.70;;;15.20;99.90;;;;;;5104084;28;20258;-76
2023/06/01 06:56:15;;;;;;;6.43;1.67;;;15.30;99.90;;;;;;5102017;28;20176;-77
2023/06/01 06:58:40;;;;;;;8.60;1.53;;;15.30;99.90;;;;;;5100394;28;20408;-78
2023/06/01 07:01:06;;;;;;;6.80;1.10;;;15.40;99.90;;;;;;5098244;28;20319;-79
2023/06/01 07:03:32;;;;;;;5.73;1.70;;;15.60;1.00;;;;;;5094786;28;20537;-80
2023/06/01 07:06:01;;;;;;;3.70;1.37;;;15.60;99.90;;;;;;5094811;28;20541;-86
2023/06/01 07:08:26;;;;;;;7.10;1.40;;;15.70;99.90;;;;;;5094708;28;20403;-82
2023/06/01 07:10:55;;;;;;;4.60;0.97;;;15.60;1.00;;;;;;5094857;28;20472;-82
2023/06/01 07:13:21;;;;;;;5.13;2.13;;;15.60;1.00;;;;;;5094102;28;20169;-79
2023/06/01 07:15:46;;;;;;;12.40;3.47;;;15.70;1.00;;;;;;5094807;28;20442;-77
2023/06/01 07:18:12;;;;;;;6.97;1.87;;;15.60;1.00;;;;;;5094596;28;20181;-85
2023/06/01 07:20:37;;;;;;;5.10;1.60;;;15.70;99.90;;;;;;5094658;28;20179;-81
2023/06/01 07:23:03;;;;;;;6.57;2.30;;;15.60;1.00;;;;;;5094392;28;20178;-77
2023/06/01 07:25:28;;;;;;;5.00;1.73;;;15.60;38.00;;;;;;5094655;28;20173;-81
2023/06/01 07:27:56;;;;;;;8.20;1.70;;;15.60;99.90;;;;;;5094582;28;20173;-80
2023/06/01 07:30:22;;;;;;;6.30;1.70;;;15.60;1.00;;;;;;5094283;28;20270;-78
2023/06/01 07:32:47;;;;;;;6.17;1.67;;;15.70;99.90;;;;;;5076177;28;20419;-78
2023/06/01 07:35:13;;;;;;;7.00;1.10;;;15.80;99.90;;;;;;5094274;28;20642;-80
2023/06/01 07:37:40;;;;;;;5.70;2.13;;;16.00;1.00;;;;;;5094176;28;20161;-77
2023/06/01 07:40:08;;;;;;;7.47;2.37;;;16.00;71.20;;;;;;5094007;28;20303;-77
2023/06/01 07:42:34;;;;;;;4.63;1.23;;;16.10;99.90;;;;;;5094075;28;20413;-78
2023/06/01 07:44:59;;;;;;;5.90;1.90;;;16.20;1.00;;;;;;5093971;28;20548;-80
2023/06/01 07:47:25;;;;;;;6.13;2.07;;;16.40;99.90;;;;;;5093888;28;20173;-77
2023/06/01 07:49:51;;;;;;;4.53;1.67;;;16.40;1.00;;;;;;5093735;28;20609;-78
2023/06/01 07:52:17;;;;;;;8.60;2.33;;;16.40;99.90;;;;;;5093449;28;20411;-80
2023/06/01 07:54:43;;;;;;;6.47;1.70;;;16.40;1.00;;;;;;5093577;28;20182;-77
2023/06/01 07:57:08;;;;;;;3.37;1.20;;;16.50;1.00;;;;;;5093691;28;20174;-78
2023/06/01 07:59:34;;;;;;;65.90;17.10;;;16.60;1.00;;;;;;5075374;28;20173;-78
2023/06/01 08:02:00;;;;;;;441.93;120.93;;;16.70;1.00;;;;;;5093690;28;20178;-79
2023/06/01 08:04:27;;;;;;;12.90;5.57;;;16.70;1.00;;;;;;5093570;28;20164;-78
2023/06/01 08:06:52;;;;;;;5.97;1.70;;;16.80;99.90;;;;;;5093260;28;20417;-81
2023/06/01 08:09:20;;;;;;;137.63;36.80;;;16.80;8.90;;;;;;5093441;28;20505;-78
2023/06/01 08:11:45;;;;;;;90.73;29.93;;;16.70;99.90;;;;;;5093478;28;20589;-79
2023/06/01 08:14:11;;;;;;;70.33;21.03;;;16.70;1.00;;;;;;5093398;28;20423;-77
2023/06/01 08:16:36;;;;;;;22.90;5.97;;;16.80;1.00;;;;;;5093367;28;20176;-78
2023/06/01 08:19:03;;;;;;;6.27;2.03;;;16.70;1.00;;;;;;5093430;28;20175;-77
2023/06/01 08:21:28;;;;;;;22.50;6.03;;;16.60;1.00;;;;;;5092978;28;20177;-78
2023/06/01 08:23:57;;;;;;;9.23;2.10;;;16.60;99.90;;;;;;5093295;28;20424;-78
2023/06/01 08:26:23;;;;;;;36.80;10.17;;;16.50;72.80;;;;;;5093263;28;20546;-78
2023/06/01 08:28:52;;;;;;;5.63;1.23;;;16.50;99.90;;;;;;5093134;28;20423;-78
2023/06/01 08:31:23;;;;;;;5.20;1.30;;;16.70;61.20;;;;;;5093205;28;20421;-78
2023/06/01 08:33:50;;;;;;;3.20;0.83;;;16.80;1.00;;;;;;5093318;28;20416;-79
2023/06/01 08:36:16;;;;;;;6.73;1.90;;;16.80;1.00;;;;;;5075335;28;20927;-78
2023/06/01 08:38:42;;;;;;;3.40;0.67;;;16.80;1.00;;;;;;5093019;28;20425;-79
2023/06/01 08:41:25;;;;;;;5.10;0.90;;;16.90;1.00;;;;;;5074989;28;20480;-78
2023/06/01 08:43:58;;;;;;;6.50;1.10;;;16.90;1.00;;;;;;5093155;28;20169;-78
2023/06/01 08:46:26;;;;;;;3.93;1.23;;;16.90;1.00;;;;;;5093092;28;20420;-78
2023/06/01 08:48:55;;;;;;;6.57;1.43;;;16.90;99.90;;;;;;5092945;28;20473;-77
2023/06/01 08:51:25;;;;;;;5.10;1.53;;;17.00;1.00;;;;;;5092623;28;21096;-79
2023/06/01 08:53:52;;;;;;;4.43;0.80;;;17.10;1.00;;;;;;5092916;28;20419;-81
2023/06/01 08:56:18;;;;;;;7.57;1.40;;;17.30;99.90;;;;;;5092996;28;20410;-82
2023/06/01 08:58:45;;;;;;;10.23;2.20;;;17.40;1.00;;;;;;5099922;28;20420;-82
2023/06/01 09:01:21;;;;;;;9.87;1.57;;;17.40;99.90;;;;;;5105130;28;20494;-86
2023/06/01 09:03:51;;;;;;;5.60;1.00;;;17.30;99.90;;;;;;5081230;28;20937;-80
2023/06/01 09:06:17;;;;;;;4.80;1.00;;;17.30;52.60;;;;;;5099425;28;20932;-80
2023/06/01 09:08:45;;;;;;;5.10;1.13;;;17.40;57.80;;;;;;5101654;28;20409;-80
2023/06/01 09:11:11;;;;;;;3.83;1.23;;;17.30;99.90;;;;;;5101978;28;20184;-82
2023/06/01 09:13:39;;;;;;;6.37;1.37;;;17.20;99.90;;;;;;5100376;28;20413;-88
2023/06/01 09:16:05;;;;;;;5.70;1.30;;;17.10;99.90;;;;;;5101446;28;20439;-82
2023/06/01 09:18:49;;;;;;;3.80;1.40;;;17.20;99.90;;;;;;5091682;28;20413;-80
2023/06/01 09:21:15;;;;;;;3.27;1.07;;;17.30;99.90;;;;;;5091277;28;20417;-82
2023/06/01 09:23:47;;;;;;;5.13;1.53;;;17.30;99.90;;;;;;5091677;28;20413;-83
2023/06/01 09:26:14;;;;;;;10.53;1.77;;;17.40;99.90;;;;;;5091685;28;20165;-79
2023/06/01 09:28:55;;;;;;;4.30;1.17;;;17.40;26.90;;;;;;5091668;28;20410;-79
2023/06/01 09:31:37;;;;;;;7.57;1.00;;;17.30;1.00;;;;;;5091363;28;20424;-80
2023/06/01 09:34:04;;;;;;;5.63;0.80;;;17.30;99.90;;;;;;5109655;28;20508;-79
2023/06/01 09:36:29;;;;;;;4.23;0.97;;;17.30;86.00;;;;;;5112460;28;20455;-82
2023/06/01 09:39:11;;;;;;;3.33;0.83;;;17.20;99.90;;;;;;5097438;28;20421;-79
2023/06/01 09:41:51;;;;;;;6.40;1.13;;;17.30;99.90;;;;;;5115647;28;20172;-79
2023/06/01 09:44:23;;;;;;;3.67;1.33;;;17.30;58.00;;;;;;5115494;28;20417;-80
2023/06/01 09:46:50;;;;;;;3.97;1.03;;;17.30;99.90;;;;;;5116609;28;20415;-82
2023/06/01 09:49:21;;;;;;;3.83;0.87;;;17.40;99.90;;;;;;5100120;28;20462;-79
2023/06/01 09:51:47;;;;;;;2.67;1.03;;;17.60;1.00;;;;;;5095936;28;20436;-80
2023/06/01 09:54:22;;;;;;;5.43;1.20;;;17.60;1.00;;;;;;5096333;28;20466;-80
2023/06/01 09:56:48;;;;;;;2.00;0.40;;;17.80;99.90;;;;;;5107932;28;20786;-80
2023/06/01 09:59:14;;;;;;;2.30;0.47;;;17.90;99.90;;;;;;5099077;28;20848;-85
2023/06/01 10:01:41;;;;;;;2.70;0.80;;;18.10;99.90;;;;;;5117892;27;20462;-80
2023/06/01 10:04:10;;;;;;;6.50;0.70;;;18.20;99.90;;;;;;5098104;28;20617;-80
2023/06/01 10:06:40;;;;;;;3.00;1.90;;;18.40;99.90;;;;;;5115865;28;20470;-80
2023/06/01 10:09:14;;;;;;;4.60;0.70;;;18.50;99.90;;;;;;5116084;28;20452;-83
2023/06/01 10:11:39;;;;;;;4.43;0.90;;;19.00;99.90;;;;;;5116136;28;20507;-84
2023/06/01 10:14:06;;;;;;;4.73;0.77;;;19.20;99.90;;;;;;5115678;28;20513;-82
2023/06/01 10:16:32;;;;;;;3.83;1.27;;;19.30;97.90;;;;;;5116101;28;20640;-83
2023/06/01 10:18:58;;;;;;;3.90;1.60;;;19.40;90.40;;;;;;5116132;28;20397;-82
2023/06/01 10:21:24;;;;;;;6.10;0.83;;;19.30;46.10;;;;;;5115696;28;20413;-81
2023/06/01 10:23:50;;;;;;;4.63;0.93;;;19.10;41.60;;;;;;5116023;28;20404;-83
2023/06/01 10:26:18;;;;;;;5.30;0.97;;;19.00;52.10;;;;;;5115878;28;20455;-83
2023/06/01 10:28:46;;;;;;;3.97;0.83;;;19.00;71.80;;;;;;5115859;28;20169;-82
2023/06/01 10:31:36;;;;;;;5.70;1.10;;;19.30;95.30;;;;;;5115909;28;20422;-83
2023/06/01 10:34:02;;;;;;;2.00;0.77;;;19.40;56.50;;;;;;5115857;28;20761;-84
2023/06/01 10:36:57;;;;;;;3.57;1.40;;;19.40;51.70;;;;;;5115223;28;20405;-83
2023/06/01 10:39:30;;;;;;;5.53;1.23;;;19.50;48.70;;;;;;5102208;28;20421;-82
2023/06/01 10:42:15;;;;;;;6.80;1.10;;;19.50;55.70;;;;;;5115640;28;20920;-82
2023/06/01 10:44:48;;;;;;;6.23;1.07;;;19.50;55.60;;;;;;5115637;28;20404;-83
2023/06/01 10:47:13;;;;;;;3.00;1.17;;;19.40;49.70;;;;;;5115701;28;20448;-89
2023/06/01 10:49:51;;;;;;;5.70;1.17;;;19.40;47.20;;;;;;5095531;28;20507;-79
2023/06/01 10:52:38;;;;;;;2.30;0.87;;;19.30;47.30;;;;;;5114502;28;20194;-79
2023/06/01 10:55:06;;;;;;;6.97;1.10;;;19.30;39.60;;;;;;5115077;28;20451;-78
2023/06/01 10:57:39;;;;;;;4.57;1.30;;;19.30;45.50;;;;;;5115316;28;20424;-79
2023/06/01 11:00:26;;;;;;;3.50;0.70;;;19.30;60.90;;;;;;5115115;28;20643;-79
2023/06/01 11:02:55;;;;;;;2.07;0.73;;;19.50;55.10;;;;;;5115108;28;20455;-80
2023/06/01 11:05:43;;;;;;;5.20;1.10;;;19.40;43.40;;;;;;5115204;28;20402;-80
2023/06/01 11:08:30;;;;;;;2.70;1.00;;;19.10;36.10;;;;;;5114829;28;20406;-79
2023/06/01 11:11:00;;;;;;;3.77;1.10;;;19.10;51.80;;;;;;5114909;28;20459;-78
2023/06/01 11:13:30;;;;;;;1.90;0.80;;;19.10;61.30;;;;;;5115034;28;20890;-79
2023/06/01 11:16:09;;;;;;;3.03;0.90;;;18.90;53.20;;;;;;5114860;28;20437;-78
2023/06/01 11:18:49;;;;;;;2.40;0.70;;;18.80;57.20;;;;;;5115044;28;20413;-80
2023/06/01 11:21:21;;;;;;;2.93;0.57;;;18.90;44.70;;;;;;5114475;28;20495;-79
2023/06/01 11:23:47;;;;;;;5.30;1.07;;;19.10;46.10;;;;;;5114703;28;20425;-80
2023/06/01 11:26:18;;;;;;;6.97;0.90;;;19.60;18.50;;;;;;5114784;28;20452;-78
2023/06/01 11:28:45;;;;;;;3.70;1.30;;;19.90;1.90;;;;;;5114656;28;20435;-79
2023/06/01 11:31:13;;;;;;;4.57;1.03;;;20.20;1.00;;;;;;5114442;28;20994;-78
2023/06/01 11:33:42;;;;;;;5.77;1.07;;;20.40;1.00;;;;;;5096168;28;20787;-79
2023/06/01 11:36:10;;;;;;;4.53;0.90;;;20.40;1.00;;;;;;5113039;28;20448;-78
2023/06/01 11:38:39;;;;;;;2.30;0.77;;;20.10;1.00;;;;;;5114526;28;20490;-78
2023/06/01 11:41:04;;;;;;;3.97;0.90;;;20.20;1.00;;;;;;5114450;28;20415;-79
2023/06/01 11:43:31;;;;;;;4.60;0.67;;;20.50;1.00;;;;;;5114206;28;20504;-78
2023/06/01 11:46:04;;;;;;;3.40;1.07;;;20.80;1.00;;;;;;5114369;28;20173;-80
2023/06/01 11:48:30;;;;;;;2.20;0.73;;;21.20;1.00;;;;;;5114287;28;20465;-78
2023/06/01 11:50:58;;;;;;;5.50;1.10;;;21.30;1.00;;;;;;5113843;28;20459;-79
2023/06/01 11:53:24;;;;;;;1.97;0.63;;;21.20;1.00;;;;;;5114330;28;20446;-80
2023/06/01 11:55:54;;;;;;;5.80;0.83;;;21.10;1.00;;;;;;5114244;28;20511;-79
2023/06/01 11:58:25;;;;;;;6.80;1.63;;;21.10;1.00;;;;;;5114242;28;20474;-80
2023/06/01 12:00:52;;;;;;;4.20;0.93;;;21.10;1.00;;;;;;5113700;28;20486;-80
2023/06/01 12:03:18;;;;;;;8.57;1.33;;;20.90;1.00;;;;;;5113986;28;20454;-79
2023/06/01 12:05:48;;;;;;;7.60;0.90;;;20.90;1.00;;;;;;5113659;28;21096;-79
2023/06/01 12:08:15;;;;;;;2.70;1.20;;;21.00;1.00;;;;;;5114009;28;20420;-79
2023/06/01 12:10:44;;;;;;;2.60;0.80;;;20.90;1.00;;;;;;5113860;28;21108;-79
2023/06/01 12:13:10;;;;;;;2.80;1.03;;;21.00;1.00;;;;;;5113888;28;20886;-79
2023/06/01 12:15:37;;;;;;;3.03;0.83;;;21.20;1.00;;;;;;5113779;28;20458;-79
2023/06/01 12:18:03;;;;;;;5.87;0.60;;;21.00;1.00;;;;;;5113793;28;20409;-79
2023/06/01 12:20:30;;;;;;;2.30;0.50;;;21.00;1.00;;;;;;5113781;28;20431;-79
2023/06/01 12:22:58;;;;;;;1.20;0.37;;;20.90;1.00;;;;;;5113401;28;20396;-79
2023/06/01 12:25:24;;;;;;;6.50;0.60;;;20.80;1.00;;;;;;5113681;28;20419;-80
2023/06/01 12:28:11;;;;;;;4.37;0.87;;;20.80;1.00;;;;;;5113690;28;20470;-79
2023/06/01 12:30:36;;;;;;;5.73;0.50;;;21.10;1.00;;;;;;5113559;28;20974;-79
2023/06/01 12:33:04;;;;;;;2.60;0.53;;;21.40;1.00;;;;;;5113566;28;20412;-80
2023/06/01 12:35:30;;;;;;;3.47;0.47;;;21.50;1.00;;;;;;5113627;28;20228;-79
2023/06/01 12:38:22;;;;;;;4.03;0.73;;;21.30;1.00;;;;;;5113236;28;20451;-79
2023/06/01 12:41:09;;;;;;;3.10;0.57;;;21.10;1.00;;;;;;5110688;28;20439;-79
2023/06/01 12:43:35;;;;;;;2.00;0.33;;;21.30;1.00;;;;;;5113435;28;20407;-79
2023/06/01 12:46:01;;;;;;;3.80;0.90;;;21.40;1.00;;;;;;5113526;28;20510;-79
2023/06/01 12:48:37;;;;;;;4.97;0.57;;;21.50;1.00;;;;;;5113438;28;20408;-80
2023/06/01 12:51:03;;;;;;;2.67;0.60;;;21.50;1.00;;;;;;5112995;28;20470;-79
2023/06/01 12:53:30;;;;;;;2.83;0.57;;;21.40;1.00;;;;;;5113358;28;20424;-79
2023/06/01 12:55:55;;;;;;;4.70;0.70;;;21.40;1.00;;;;;;5113378;28;20987;-80
2023/06/01 12:58:21;;;;;;;2.43;0.80;;;21.50;1.00;;;;;;5113344;28;20486;-79